createdAt,value
2018-02-10T00:01:10.665Z,1.40
2018-02-10T00:03:38.140Z,1.40
2018-02-10T00:06:05.620Z,1.40
2018-02-10T00:08:33.880Z,1.40
2018-02-10T00:11:01.477Z,1.40
2018-02-10T00:13:28.957Z,1.30
2018-02-10T00:15:56.461Z,1.40
2018-02-10T00:18:24.697Z,1.30
2018-02-10T00:20:52.181Z,1.30
2018-02-10T00:23:21.184Z,1.10
2018-02-10T00:25:49.715Z,1.10
2018-02-10T00:28:17.193Z,1.10
2018-02-10T00:30:44.933Z,1.20
2018-02-10T00:33:12.412Z,1.30
2018-02-10T00:35:39.893Z,1.30
2018-02-10T00:38:07.465Z,1.30
2018-02-10T00:40:35.712Z,1.40
2018-02-10T00:43:03.194Z,1.40
2018-02-10T00:45:31.465Z,1.50
2018-02-10T00:47:59.708Z,1.50
2018-02-10T00:50:27.205Z,1.50
2018-02-10T00:52:55.473Z,1.50
2018-02-10T00:55:23.761Z,1.50
2018-02-10T00:57:51.316Z,1.50
2018-02-10T01:00:19.580Z,1.40
2018-02-10T01:02:47.832Z,1.50
2018-02-10T01:05:15.325Z,1.40
2018-02-10T01:07:43.588Z,1.40
2018-02-10T01:10:11.073Z,1.40
2018-02-10T01:12:38.553Z,1.40
2018-02-10T01:15:06.056Z,1.40
2018-02-10T01:17:33.532Z,1.40
2018-02-10T01:20:01.774Z,1.40
2018-02-10T01:22:29.286Z,1.40
2018-02-10T01:24:57.679Z,1.50
2018-02-10T01:27:25.215Z,1.40
2018-02-10T01:29:52.685Z,1.40
2018-02-10T01:32:20.158Z,1.50
2018-02-10T01:34:47.642Z,1.50
2018-02-10T01:37:15.377Z,1.40
2018-02-10T01:39:42.853Z,1.40
2018-02-10T01:42:10.324Z,1.40
2018-02-10T01:44:37.824Z,1.40
2018-02-10T01:47:05.305Z,1.40
2018-02-10T01:49:32.788Z,1.40
2018-02-10T01:52:00.294Z,1.40
2018-02-10T01:54:27.833Z,1.50
2018-02-10T01:56:55.305Z,1.50
2018-02-10T01:59:22.807Z,1.50
2018-02-10T02:01:50.312Z,1.40
2018-02-10T02:04:18.552Z,1.40
2018-02-10T02:06:46.054Z,1.40
2018-02-10T02:09:14.139Z,1.40
2018-02-10T02:11:43.314Z,1.30
2018-02-10T02:14:11.569Z,1.30
2018-02-10T02:16:39.045Z,1.30
2018-02-10T02:19:07.292Z,1.10
2018-02-10T02:21:34.784Z,1.00
2018-02-10T02:24:03.037Z,1.10
2018-02-10T02:26:31.281Z,1.10
2018-02-10T02:28:58.776Z,1.10
2018-02-10T02:31:27.025Z,1.00
2018-02-10T02:33:54.501Z,1.00
2018-02-10T02:36:22.428Z,1.00
2018-02-10T02:38:49.901Z,1.00
2018-02-10T02:41:17.401Z,1.10
2018-02-10T02:43:45.669Z,1.10
2018-02-10T02:46:13.948Z,1.10
2018-02-10T02:48:42.188Z,1.00
2018-02-10T02:51:09.688Z,1.00
2018-02-10T02:53:37.925Z,0.80
2018-02-10T02:56:05.401Z,0.80
2018-02-10T02:58:33.669Z,0.80
2018-02-10T03:01:01.145Z,0.80
2018-02-10T03:03:29.397Z,0.80
2018-02-10T03:05:56.901Z,0.80
2018-02-10T03:08:24.377Z,0.80
2018-02-10T03:10:51.853Z,0.90
2018-02-10T03:13:20.004Z,0.90
2018-02-10T03:15:47.876Z,1.00
2018-02-10T03:18:15.353Z,0.90
2018-02-10T03:20:42.853Z,0.90
2018-02-10T03:23:11.097Z,1.00
2018-02-10T03:25:38.573Z,1.00
2018-02-10T03:28:06.841Z,0.90
2018-02-10T03:30:34.320Z,0.90
2018-02-10T03:33:02.590Z,0.90
2018-02-10T03:35:30.858Z,0.80
2018-02-10T03:37:59.140Z,0.80
2018-02-10T03:40:27.385Z,0.90
2018-02-10T03:42:54.884Z,0.80
2018-02-10T03:45:22.361Z,1.00
2018-02-10T03:47:49.845Z,1.00
2018-02-10T03:50:17.697Z,1.10
2018-02-10T03:52:45.169Z,1.20
2018-02-10T03:55:12.644Z,1.10
2018-02-10T03:57:40.373Z,1.10
2018-02-10T04:00:07.853Z,1.20
2018-02-10T04:02:35.322Z,1.30
2018-02-10T04:05:02.821Z,1.20
2018-02-10T04:07:30.297Z,1.20
2018-02-10T04:09:57.773Z,1.10
2018-02-10T04:12:25.276Z,1.00
2018-02-10T04:14:53.524Z,0.80
2018-02-10T04:17:21.004Z,0.80
2018-02-10T04:19:49.268Z,0.80
2018-02-10T04:22:16.737Z,0.80
2018-02-10T04:24:45.016Z,1.00
2018-02-10T04:27:13.280Z,1.00
2018-02-10T04:29:41.584Z,1.10
2018-02-10T04:32:09.061Z,1.10
2018-02-10T04:34:36.560Z,1.10
2018-02-10T04:37:04.049Z,1.20
2018-02-10T04:39:32.313Z,1.20
2018-02-10T04:42:00.576Z,1.20
2018-02-10T04:44:28.057Z,1.20
2018-02-10T04:46:56.320Z,1.20
2018-02-10T04:49:24.611Z,1.20
2018-02-10T04:51:52.093Z,1.20
2018-02-10T04:54:19.573Z,1.20
2018-02-10T04:56:47.074Z,1.20
2018-02-10T04:59:15.333Z,1.20
2018-02-10T05:01:43.583Z,1.20
2018-02-10T05:04:11.077Z,1.20
2018-02-10T05:06:39.358Z,1.30
2018-02-10T05:09:07.599Z,1.30
2018-02-10T05:11:35.097Z,1.30
2018-02-10T05:14:03.337Z,1.10
2018-02-10T05:16:30.804Z,1.10
2018-02-10T05:18:58.309Z,0.90
2018-02-10T05:21:25.789Z,0.70
2018-02-10T05:23:53.272Z,0.80
2018-02-10T05:26:20.772Z,0.90
2018-02-10T05:28:48.257Z,1.00
2018-02-10T05:31:16.017Z,1.00
2018-02-10T05:33:43.513Z,1.10
2018-02-10T05:36:10.993Z,1.10
2018-02-10T05:38:39.241Z,1.20
2018-02-10T05:41:07.069Z,1.20
2018-02-10T05:43:34.768Z,1.20
2018-02-10T05:46:02.244Z,1.30
2018-02-10T05:48:30.513Z,1.30
2018-02-10T05:50:58.764Z,1.20
2018-02-10T05:53:26.246Z,1.20
2018-02-10T05:55:53.765Z,1.20
2018-02-10T05:58:21.273Z,1.20
2018-02-10T06:00:49.536Z,1.20
2018-02-10T06:03:17.113Z,1.20
2018-02-10T06:05:45.357Z,1.20
2018-02-10T06:08:12.844Z,1.20
2018-02-10T06:10:41.331Z,1.20
2018-02-10T06:13:09.673Z,1.20
2018-02-10T06:15:37.149Z,1.20
2018-02-10T06:18:05.413Z,1.20
2018-02-10T06:20:32.889Z,1.20
2018-02-10T06:23:01.133Z,1.20
2018-02-10T06:25:28.629Z,1.20
2018-02-10T06:27:56.210Z,1.00
2018-02-10T06:30:23.673Z,1.00
2018-02-10T06:32:51.173Z,1.00
2018-02-10T06:35:18.752Z,1.00
2018-02-10T06:37:47.001Z,1.00
2018-02-10T06:40:14.517Z,0.90
2018-02-10T06:42:41.996Z,0.90
2018-02-10T06:45:09.473Z,0.90
2018-02-10T06:47:38.476Z,0.80
2018-02-10T06:50:07.484Z,0.90
2018-02-10T06:52:35.725Z,1.00
2018-02-10T06:55:03.244Z,1.00
2018-02-10T06:57:30.777Z,1.10
2018-02-10T06:59:59.057Z,1.20
2018-02-10T07:02:27.320Z,1.20
2018-02-10T07:04:55.565Z,1.30
2018-02-10T07:07:23.049Z,1.20
2018-02-10T07:09:50.545Z,1.30
2018-02-10T07:12:18.028Z,1.40
2018-02-10T07:14:45.532Z,1.30
2018-02-10T07:17:13.792Z,1.50
2018-02-10T07:19:41.278Z,1.50
2018-02-10T07:22:09.514Z,1.50
2018-02-10T07:24:37.172Z,1.50
2018-02-10T07:27:04.694Z,1.60
2018-02-10T07:29:32.190Z,1.60
2018-02-10T07:31:59.687Z,1.60
2018-02-10T07:34:27.925Z,1.60
2018-02-10T07:36:55.393Z,1.60
2018-02-10T07:39:22.892Z,1.70
2018-02-10T07:41:50.373Z,1.70
2018-02-10T07:44:17.853Z,1.70
2018-02-10T07:46:45.592Z,1.80
2018-02-10T07:49:13.073Z,1.80
2018-02-10T07:51:40.553Z,1.80
2018-02-10T07:54:08.829Z,1.80
2018-02-10T07:56:37.069Z,1.80
2018-02-10T07:59:04.541Z,1.80
2018-02-10T08:01:32.033Z,1.80
2018-02-10T08:04:00.274Z,1.90
2018-02-10T08:06:27.753Z,1.90
2018-02-10T08:08:56.521Z,2.00
2018-02-10T08:11:24.764Z,2.00
2018-02-10T08:13:52.272Z,2.00
2018-02-10T08:16:20.544Z,2.00
2018-02-10T08:18:48.012Z,2.10
2018-02-10T08:21:16.260Z,2.00
2018-02-10T08:23:43.822Z,2.00
2018-02-10T08:26:12.082Z,1.90
2018-02-10T08:28:39.561Z,1.90
2018-02-10T08:31:07.154Z,1.60
2018-02-10T08:33:34.635Z,1.50
2018-02-10T08:36:03.045Z,1.40
2018-02-10T08:38:30.661Z,1.60
2018-02-10T08:40:58.925Z,1.40
2018-02-10T08:43:26.416Z,1.40
2018-02-10T08:45:53.916Z,1.60
2018-02-10T08:48:22.381Z,1.60
2018-02-10T08:50:50.104Z,1.50
2018-02-10T08:53:17.616Z,1.70
2018-02-10T08:55:45.857Z,2.00
2018-02-10T08:58:13.341Z,2.00
2018-02-10T09:00:40.829Z,2.20
2018-02-10T09:03:08.369Z,2.30
2018-02-10T09:05:36.609Z,2.30
2018-02-10T09:08:04.105Z,2.30
2018-02-10T09:10:32.345Z,2.40
2018-02-10T09:12:59.821Z,2.40
2018-02-10T09:15:27.316Z,2.50
2018-02-10T09:17:54.789Z,2.60
2018-02-10T09:20:22.347Z,2.70
2018-02-10T09:22:49.893Z,2.80
2018-02-10T09:25:17.397Z,2.90
2018-02-10T09:27:44.889Z,2.90
2018-02-10T09:30:13.153Z,2.80
2018-02-10T09:32:41.403Z,2.70
2018-02-10T09:35:08.880Z,2.80
2018-02-10T09:37:37.141Z,2.80
2018-02-10T09:40:04.617Z,2.80
2018-02-10T09:42:32.865Z,2.90
2018-02-10T09:45:00.412Z,2.90
2018-02-10T09:47:27.852Z,3.00
2018-02-10T09:49:55.333Z,3.00
2018-02-10T09:52:22.832Z,3.00
2018-02-10T09:54:51.106Z,3.10
2018-02-10T09:57:19.345Z,3.10
2018-02-10T09:59:46.845Z,3.10
2018-02-10T10:02:14.322Z,3.10
2018-02-10T10:04:41.796Z,3.20
2018-02-10T10:07:09.295Z,3.30
2018-02-10T10:09:37.535Z,3.30
2018-02-10T10:12:05.049Z,3.30
2018-02-10T10:14:32.545Z,3.40
2018-02-10T10:17:00.045Z,3.40
2018-02-10T10:19:28.285Z,3.60
2018-02-10T10:21:55.781Z,3.60
2018-02-10T10:24:24.025Z,3.70
2018-02-10T10:26:51.500Z,3.60
2018-02-10T10:29:18.997Z,3.60
2018-02-10T10:31:46.524Z,3.60
2018-02-10T10:34:14.768Z,3.70
2018-02-10T10:36:42.262Z,3.70
2018-02-10T10:39:10.501Z,3.80
2018-02-10T10:41:37.973Z,3.80
2018-02-10T10:44:05.464Z,3.90
2018-02-10T10:46:32.945Z,4.00
2018-02-10T10:49:00.465Z,4.20
2018-02-10T10:51:28.725Z,4.30
2018-02-10T10:53:57.261Z,4.40
2018-02-10T10:56:24.737Z,4.40
2018-02-10T10:58:52.232Z,4.50
2018-02-10T11:01:20.509Z,4.50
2018-02-10T11:03:48.757Z,4.50
2018-02-10T11:06:16.521Z,4.50
2018-02-10T11:08:43.997Z,4.50
2018-02-10T11:11:11.473Z,4.50
2018-02-10T11:13:39.733Z,4.50
2018-02-10T11:16:07.206Z,4.50
2018-02-10T11:18:35.449Z,4.60
2018-02-10T11:21:02.940Z,4.60
2018-02-10T11:23:31.180Z,4.50
2018-02-10T11:25:58.657Z,4.40
2018-02-10T11:28:26.925Z,4.60
2018-02-10T11:30:54.401Z,4.60
2018-02-10T11:33:22.641Z,4.70
2018-02-10T11:35:50.137Z,4.60
2018-02-10T11:38:17.617Z,4.60
2018-02-10T11:40:45.093Z,4.60
2018-02-10T11:43:12.597Z,4.60
2018-02-10T11:45:40.836Z,4.50
2018-02-10T11:48:08.313Z,4.50
2018-02-10T11:50:35.809Z,4.70
2018-02-10T11:53:04.053Z,4.80
2018-02-10T11:55:32.293Z,4.70
2018-02-10T11:57:59.789Z,4.70
2018-02-10T12:00:28.040Z,4.70
2018-02-10T12:02:55.517Z,4.70
2018-02-10T12:05:23.801Z,4.50
2018-02-10T12:07:52.047Z,4.50
2018-02-10T12:10:19.525Z,4.50
2018-02-10T12:12:47.784Z,4.30
2018-02-10T12:15:16.047Z,4.40
2018-02-10T12:17:43.557Z,4.40
2018-02-10T12:20:11.053Z,4.30
2018-02-10T12:22:38.532Z,4.30
2018-02-10T12:25:06.012Z,4.20
2018-02-10T12:27:34.274Z,4.30
2018-02-10T12:30:01.751Z,4.30
2018-02-10T12:32:29.993Z,4.20
2018-02-10T12:34:57.488Z,4.30
2018-02-10T12:37:24.965Z,4.20
2018-02-10T12:39:52.492Z,4.10
2018-02-10T12:42:20.750Z,4.10
2018-02-10T12:44:48.221Z,4.10
2018-02-10T12:47:16.461Z,4.10
2018-02-10T12:49:43.988Z,4.10
2018-02-10T12:52:11.465Z,4.10
2018-02-10T12:54:38.941Z,4.10
2018-02-10T12:57:07.210Z,4.10
2018-02-10T12:59:34.689Z,4.10
2018-02-10T13:02:02.172Z,4.10
2018-02-10T13:04:29.672Z,4.10
2018-02-10T13:06:57.140Z,4.10
2018-02-10T13:09:24.613Z,4.20
2018-02-10T13:11:52.873Z,4.30
2018-02-10T13:14:20.344Z,4.30
2018-02-10T13:16:47.833Z,4.30
2018-02-10T13:19:15.326Z,4.20
2018-02-10T13:21:42.803Z,4.30
2018-02-10T13:24:10.280Z,4.30
2018-02-10T13:26:37.774Z,4.20
2018-02-10T13:29:05.549Z,4.10
2018-02-10T13:31:33.797Z,3.90
2018-02-10T13:34:02.085Z,3.90
2018-02-10T13:36:29.561Z,3.90
2018-02-10T13:38:57.037Z,3.70
2018-02-10T13:41:24.536Z,3.60
2018-02-10T13:43:52.773Z,3.60
2018-02-10T13:46:20.474Z,3.50
2018-02-10T13:48:48.734Z,3.60
2018-02-10T13:51:17.125Z,3.60
2018-02-10T13:53:45.369Z,3.60
2018-02-10T13:56:12.884Z,3.60
2018-02-10T13:58:40.359Z,3.50
2018-02-10T14:01:07.838Z,3.50
2018-02-10T14:03:35.329Z,3.50
2018-02-10T14:06:03.577Z,3.50
2018-02-10T14:08:31.056Z,3.50
2018-02-10T14:10:59.318Z,3.40
2018-02-10T14:13:26.896Z,3.40
2018-02-10T14:15:55.139Z,3.30
2018-02-10T14:18:22.671Z,3.30
2018-02-10T14:20:50.180Z,3.30
2018-02-10T14:23:18.420Z,3.30
2018-02-10T14:25:45.917Z,3.20
2018-02-10T14:28:14.161Z,3.20
2018-02-10T14:30:41.636Z,3.20
2018-02-10T14:33:09.125Z,3.20
2018-02-10T14:35:36.909Z,3.30
2018-02-10T14:38:04.397Z,3.30
2018-02-10T14:40:31.904Z,3.30
2018-02-10T14:42:59.421Z,3.30
2018-02-10T14:45:26.894Z,3.20
2018-02-10T14:47:55.153Z,3.30
2018-02-10T14:50:22.629Z,3.20
2018-02-10T14:52:50.865Z,3.20
2018-02-10T14:55:18.361Z,3.20
2018-02-10T14:57:46.633Z,3.10
2018-02-10T15:00:14.869Z,2.90
2018-02-10T15:02:42.362Z,2.90
2018-02-10T15:05:10.601Z,3.00
2018-02-10T15:07:38.075Z,3.00
2018-02-10T15:10:06.333Z,2.90
2018-02-10T15:12:33.807Z,2.90
2018-02-10T15:15:01.281Z,2.90
2018-02-10T15:17:29.572Z,2.90
2018-02-10T15:19:57.854Z,2.90
2018-02-10T15:22:26.096Z,2.70
2018-02-10T15:24:53.592Z,2.70
2018-02-10T15:27:21.077Z,2.80
2018-02-10T15:30:00.330Z,2.80
2018-02-10T15:32:39.847Z,2.80
2018-02-10T15:35:07.337Z,2.80
2018-02-10T15:37:34.809Z,2.80
2018-02-10T15:40:03.057Z,2.80
2018-02-10T15:42:30.553Z,2.80
2018-02-10T15:44:58.789Z,2.80
2018-02-10T15:47:26.276Z,2.80
2018-02-10T15:49:55.088Z,2.90
2018-02-10T15:52:22.561Z,2.80
2018-02-10T15:54:50.049Z,2.90
2018-02-10T15:57:17.545Z,2.80
2018-02-10T15:59:45.045Z,2.80
2018-02-10T16:02:12.548Z,2.80
2018-02-10T16:04:40.805Z,2.70
2018-02-10T16:07:08.285Z,2.70
2018-02-10T16:09:36.551Z,2.70
2018-02-10T16:12:04.157Z,2.70
2018-02-10T16:14:31.936Z,2.70
2018-02-10T16:16:59.429Z,2.60
2018-02-10T16:19:26.921Z,2.60
2018-02-10T16:21:54.392Z,2.70
2018-02-10T16:24:21.872Z,2.60
2018-02-10T16:26:49.360Z,2.70
2018-02-10T16:29:17.041Z,2.60
2018-02-10T16:31:45.276Z,2.50
2018-02-10T16:34:12.770Z,2.50
2018-02-10T16:36:41.009Z,2.50
2018-02-10T16:39:08.482Z,2.50
2018-02-10T16:41:35.984Z,2.50
2018-02-10T16:44:03.461Z,2.50
2018-02-10T16:46:30.941Z,2.50
2018-02-10T16:48:58.442Z,2.50
2018-02-10T16:51:25.954Z,2.50
2018-02-10T16:53:53.401Z,2.50
2018-02-10T16:56:20.896Z,2.60
2018-02-10T16:58:49.140Z,2.60
2018-02-10T17:01:16.609Z,2.50
2018-02-10T17:03:44.097Z,2.60
2018-02-10T17:06:11.577Z,2.60
2018-02-10T17:08:39.057Z,2.60
2018-02-10T17:11:06.553Z,2.60
2018-02-10T17:13:34.796Z,2.60
2018-02-10T17:16:02.269Z,2.60
2018-02-10T17:18:29.761Z,2.60
2018-02-10T17:20:57.245Z,2.60
2018-02-10T17:23:24.729Z,2.60
2018-02-10T17:25:52.232Z,2.60
2018-02-10T17:28:19.706Z,2.60
2018-02-10T17:30:47.181Z,2.60
2018-02-10T17:33:14.681Z,2.60
2018-02-10T17:35:42.917Z,2.60
2018-02-10T17:38:10.416Z,2.50
2018-02-10T17:40:38.684Z,2.50
2018-02-10T17:43:06.161Z,2.50
2018-02-10T17:45:34.401Z,2.50
2018-02-10T17:48:01.936Z,2.50
2018-02-10T17:50:29.434Z,2.50
2018-02-10T17:52:57.002Z,2.60
2018-02-10T17:55:25.261Z,2.60
2018-02-10T17:57:52.739Z,2.60
2018-02-10T18:00:20.977Z,2.60
2018-02-10T18:02:48.469Z,2.50
2018-02-10T18:05:16.989Z,2.60
2018-02-10T18:07:44.464Z,2.50
2018-02-10T18:10:11.965Z,2.50
2018-02-10T18:12:40.205Z,2.50
2018-02-10T18:15:07.693Z,2.50
2018-02-10T18:17:36.007Z,2.50
2018-02-10T18:20:03.801Z,2.50
2018-02-10T18:22:32.057Z,2.50
2018-02-10T18:24:59.549Z,2.40
2018-02-10T18:27:27.021Z,2.50
2018-02-10T18:29:55.824Z,2.50
2018-02-10T18:32:23.317Z,2.40
2018-02-10T18:34:50.810Z,2.50
2018-02-10T18:37:18.285Z,2.50
2018-02-10T18:39:46.545Z,2.50
2018-02-10T18:42:14.033Z,2.40
2018-02-10T18:44:41.514Z,2.50
2018-02-10T18:47:09.013Z,2.50
2018-02-10T18:49:36.499Z,2.40
2018-02-10T18:52:04.047Z,2.40
2018-02-10T18:54:32.565Z,2.40
2018-02-10T18:57:00.064Z,2.40
2018-02-10T18:59:27.573Z,2.50
2018-02-10T19:01:55.073Z,2.50
2018-02-10T19:04:22.545Z,2.50
2018-02-10T19:06:50.826Z,2.50
2018-02-10T19:09:19.089Z,2.40
2018-02-10T19:11:46.565Z,2.40
2018-02-10T19:14:14.816Z,2.40
2018-02-10T19:16:43.821Z,2.40
2018-02-10T19:19:11.349Z,2.40
2018-02-10T19:21:38.821Z,2.40
2018-02-10T19:24:06.321Z,2.50
2018-02-10T19:26:33.867Z,2.40
2018-02-10T19:29:01.358Z,2.30
2018-02-10T19:31:28.853Z,2.20
2018-02-10T19:33:56.528Z,2.20
2018-02-10T19:36:24.780Z,2.20
2018-02-10T19:38:52.273Z,2.20
2018-02-10T19:41:20.521Z,2.00
2018-02-10T19:43:48.088Z,2.00
2018-02-10T19:46:15.807Z,1.90
2018-02-10T19:48:44.824Z,1.90
2018-02-10T19:51:12.306Z,1.90
2018-02-10T19:53:40.576Z,1.90
2018-02-10T19:56:08.054Z,1.90
2018-02-10T19:58:35.539Z,1.80
2018-02-10T20:01:03.041Z,1.80
2018-02-10T20:03:31.298Z,1.80
2018-02-10T20:05:58.863Z,1.80
2018-02-10T20:08:27.873Z,1.70
2018-02-10T20:10:55.366Z,1.70
2018-02-10T20:13:22.857Z,1.80
2018-02-10T20:15:50.357Z,1.70
2018-02-10T20:18:18.633Z,1.70
2018-02-10T20:20:47.023Z,1.70
2018-02-10T20:23:14.573Z,1.70
2018-02-10T20:25:42.817Z,1.70
2018-02-10T20:28:10.293Z,1.70
2018-02-10T20:30:37.784Z,1.70
2018-02-10T20:33:05.253Z,1.80
2018-02-10T20:35:32.729Z,1.90
2018-02-10T20:38:00.225Z,2.00
2018-02-10T20:40:27.706Z,2.10
2018-02-10T20:42:55.178Z,2.10
2018-02-10T20:45:22.689Z,2.10
2018-02-10T20:47:51.671Z,2.20
2018-02-10T20:50:19.152Z,2.20
2018-02-10T20:52:47.419Z,2.30
2018-02-10T20:55:15.661Z,2.40
2018-02-10T20:57:43.133Z,2.30
2018-02-10T21:00:10.629Z,2.40
2018-02-10T21:02:38.109Z,2.30
2018-02-10T21:05:05.601Z,2.20
2018-02-10T21:07:33.100Z,2.10
2018-02-10T21:10:01.337Z,2.00
2018-02-10T21:12:28.816Z,2.00
2018-02-10T21:14:57.341Z,2.00
2018-02-10T21:17:24.817Z,1.90
2018-02-10T21:19:52.306Z,2.00
2018-02-10T21:22:20.569Z,1.90
2018-02-10T21:24:48.045Z,1.90
2018-02-10T21:27:16.560Z,1.90
2018-02-10T21:29:44.073Z,1.90
2018-02-10T21:32:11.789Z,1.90
2018-02-10T21:34:39.261Z,1.90
2018-02-10T21:37:06.757Z,1.90
2018-02-10T21:39:35.037Z,2.00
2018-02-10T21:42:03.290Z,1.90
2018-02-10T21:44:31.589Z,1.90
2018-02-10T21:46:59.829Z,1.90
2018-02-10T21:49:27.300Z,1.90
2018-02-10T21:51:54.793Z,2.00
2018-02-10T21:54:22.272Z,1.90
2018-02-10T21:56:49.757Z,2.00
2018-02-10T21:59:17.272Z,2.00
2018-02-10T22:01:45.161Z,2.10
2018-02-10T22:04:12.653Z,2.10
2018-02-10T22:06:40.919Z,2.20
2018-02-10T22:09:08.402Z,2.20
2018-02-10T22:11:36.637Z,2.10
2018-02-10T22:14:04.132Z,2.10
2018-02-10T22:16:32.369Z,2.20
2018-02-10T22:18:59.845Z,2.20
2018-02-10T22:21:27.344Z,2.30
2018-02-10T22:23:54.819Z,2.20
2018-02-10T22:26:22.296Z,2.30
2018-02-10T22:28:49.793Z,2.30
2018-02-10T22:31:18.074Z,2.30
2018-02-10T22:33:46.596Z,2.40
2018-02-10T22:36:14.121Z,2.40
2018-02-10T22:38:42.365Z,2.40
2018-02-10T22:41:09.850Z,2.40
2018-02-10T22:43:38.153Z,2.40
2018-02-10T22:46:05.621Z,2.40
2018-02-10T22:48:33.101Z,2.40
2018-02-10T22:51:00.601Z,2.40
2018-02-10T22:53:28.860Z,2.40
2018-02-10T22:55:56.349Z,2.40
2018-02-10T22:58:23.849Z,2.40
2018-02-10T23:00:51.329Z,2.30
2018-02-10T23:03:18.805Z,2.30
2018-02-10T23:05:47.065Z,2.40
2018-02-10T23:08:15.305Z,2.30
2018-02-10T23:10:42.776Z,2.30
2018-02-10T23:13:10.264Z,2.40
2018-02-10T23:15:38.781Z,2.30
2018-02-10T23:18:06.253Z,2.20
2018-02-10T23:20:33.744Z,2.30
2018-02-10T23:23:01.213Z,2.30
2018-02-10T23:25:29.453Z,2.50
2018-02-10T23:27:56.949Z,2.50
2018-02-10T23:30:25.189Z,2.60
2018-02-10T23:32:52.665Z,2.60
2018-02-10T23:35:36.785Z,2.60
2018-02-10T23:38:05.036Z,2.60
2018-02-10T23:40:32.519Z,2.60
2018-02-10T23:43:00.017Z,2.60
2018-02-10T23:45:28.260Z,2.60
2018-02-10T23:47:57.277Z,2.60
2018-02-10T23:50:25.543Z,2.70
2018-02-10T23:52:53.113Z,2.60
2018-02-10T23:55:21.353Z,2.60
2018-02-10T23:57:48.848Z,2.60
